sensor_id;sensor_type;location;lat;lon;timestamp;P1;durP1;ratioP1;P2;durP2;ratioP2
34832;SDS011;55941;50.800;4.342;2023-07-28T00:02:07;11.10;;;5.15;;
34832;SDS011;55941;50.800;4.342;2023-07-28T00:04:34;12.20;;;5.78;;
34832;SDS011;55941;50.800;4.342;2023-07-28T00:07:02;9.40;;;4.88;;
34832;SDS011;55941;50.800;4.342;2023-07-28T00:09:30;9.38;;;5.45;;
34832;SDS011;55941;50.800;4.342;2023-07-28T00:11:56;11.23;;;5.78;;
34832;SDS011;55941;50.800;4.342;2023-07-28T00:14:24;11.23;;;4.55;;
34832;SDS011;55941;50.800;4.342;2023-07-28T00:16:53;8.70;;;5.78;;
34832;SDS011;55941;50.800;4.342;2023-07-28T00:19:21;8.70;;;5.70;;
34832;SDS011;55941;50.800;4.342;2023-07-28T00:21:50;10.35;;;5.18;;
34832;SDS011;55941;50.800;4.342;2023-07-28T00:24:18;8.85;;;5.20;;
34832;SDS011;55941;50.800;4.342;2023-07-28T00:26:44;10.38;;;5.25;;
34832;SDS011;55941;50.800;4.342;2023-07-28T00:29:09;11.15;;;5.60;;
34832;SDS011;55941;50.800;4.342;2023-07-28T00:31:35;9.52;;;5.57;;
34832;SDS011;55941;50.800;4.342;2023-07-28T00:34:01;7.28;;;5.10;;
34832;SDS011;55941;50.800;4.342;2023-07-28T00:36:29;11.27;;;5.45;;
34832;SDS011;55941;50.800;4.342;2023-07-28T00:38:55;9.18;;;5.40;;
34832;SDS011;55941;50.800;4.342;2023-07-28T00:41:21;10.60;;;5.47;;
34832;SDS011;55941;50.800;4.342;2023-07-28T00:43:46;15.35;;;5.63;;
34832;SDS011;55941;50.800;4.342;2023-07-28T00:46:13;8.13;;;5.10;;
34832;SDS011;55941;50.800;4.342;2023-07-28T00:48:40;11.23;;;5.90;;
34832;SDS011;55941;50.800;4.342;2023-07-28T00:51:06;16.13;;;5.80;;
34832;SDS011;55941;50.800;4.342;2023-07-28T00:53:33;12.65;;;5.53;;
34832;SDS011;55941;50.800;4.342;2023-07-28T00:55:59;7.45;;;4.90;;
34832;SDS011;55941;50.800;4.342;2023-07-28T00:58:25;8.40;;;5.00;;
34832;SDS011;55941;50.800;4.342;2023-07-28T01:00:52;11.68;;;4.95;;
34832;SDS011;55941;50.800;4.342;2023-07-28T01:03:18;8.63;;;5.25;;
34832;SDS011;55941;50.800;4.342;2023-07-28T01:08:28;9.15;;;5.13;;
34832;SDS011;55941;50.800;4.342;2023-07-28T01:10:59;9.10;;;5.45;;
34832;SDS011;55941;50.800;4.342;2023-07-28T01:13:24;8.38;;;5.28;;
34832;SDS011;55941;50.800;4.342;2023-07-28T01:15:51;10.27;;;5.13;;
34832;SDS011;55941;50.800;4.342;2023-07-28T01:18:19;8.98;;;5.15;;
34832;SDS011;55941;50.800;4.342;2023-07-28T01:20:45;11.15;;;5.20;;
34832;SDS011;55941;50.800;4.342;2023-07-28T01:23:23;8.52;;;4.88;;
34832;SDS011;55941;50.800;4.342;2023-07-28T01:28:33;16.83;;;6.60;;
34832;SDS011;55941;50.800;4.342;2023-07-28T01:31:01;11.75;;;6.13;;
34832;SDS011;55941;50.800;4.342;2023-07-28T01:33:28;11.90;;;7.28;;
34832;SDS011;55941;50.800;4.342;2023-07-28T01:35:54;13.23;;;7.32;;
34832;SDS011;55941;50.800;4.342;2023-07-28T01:38:20;15.63;;;7.00;;
34832;SDS011;55941;50.800;4.342;2023-07-28T01:40:47;12.40;;;7.85;;
34832;SDS011;55941;50.800;4.342;2023-07-28T01:43:13;15.68;;;7.90;;
34832;SDS011;55941;50.800;4.342;2023-07-28T01:45:39;16.63;;;8.50;;
34832;SDS011;55941;50.800;4.342;2023-07-28T01:48:04;23.42;;;8.52;;
34832;SDS011;55941;50.800;4.342;2023-07-28T01:50:30;22.98;;;8.95;;
34832;SDS011;55941;50.800;4.342;2023-07-28T01:52:56;20.50;;;8.20;;
34832;SDS011;55941;50.800;4.342;2023-07-28T01:55:22;16.27;;;8.70;;
34832;SDS011;55941;50.800;4.342;2023-07-28T01:57:54;18.30;;;8.48;;
34832;SDS011;55941;50.800;4.342;2023-07-28T02:00:24;16.63;;;7.90;;
34832;SDS011;55941;50.800;4.342;2023-07-28T02:02:51;24.73;;;8.27;;
34832;SDS011;55941;50.800;4.342;2023-07-28T02:05:17;15.70;;;8.10;;
34832;SDS011;55941;50.800;4.342;2023-07-28T02:07:43;21.17;;;7.88;;
34832;SDS011;55941;50.800;4.342;2023-07-28T02:10:09;18.10;;;7.75;;
34832;SDS011;55941;50.800;4.342;2023-07-28T02:12:35;15.15;;;7.60;;
34832;SDS011;55941;50.800;4.342;2023-07-28T02:15:02;15.40;;;7.72;;
34832;SDS011;55941;50.800;4.342;2023-07-28T02:17:28;20.48;;;7.97;;
34832;SDS011;55941;50.800;4.342;2023-07-28T02:19:54;22.33;;;8.43;;
34832;SDS011;55941;50.800;4.342;2023-07-28T02:22:20;16.08;;;9.13;;
34832;SDS011;55941;50.800;4.342;2023-07-28T02:24:46;22.63;;;9.90;;
34832;SDS011;55941;50.800;4.342;2023-07-28T02:27:12;25.98;;;10.45;;
34832;SDS011;55941;50.800;4.342;2023-07-28T02:29:38;16.85;;;9.88;;
34832;SDS011;55941;50.800;4.342;2023-07-28T02:32:04;16.17;;;9.82;;
34832;SDS011;55941;50.800;4.342;2023-07-28T02:34:30;21.90;;;10.60;;
34832;SDS011;55941;50.800;4.342;2023-07-28T02:36:57;27.40;;;10.95;;
34832;SDS011;55941;50.800;4.342;2023-07-28T02:39:22;22.20;;;11.20;;
34832;SDS011;55941;50.800;4.342;2023-07-28T02:41:48;19.23;;;10.52;;
34832;SDS011;55941;50.800;4.342;2023-07-28T02:44:14;24.02;;;10.38;;
34832;SDS011;55941;50.800;4.342;2023-07-28T02:46:40;16.02;;;10.23;;
34832;SDS011;55941;50.800;4.342;2023-07-28T02:49:06;18.52;;;10.93;;
34832;SDS011;55941;50.800;4.342;2023-07-28T02:51:32;21.35;;;10.98;;
34832;SDS011;55941;50.800;4.342;2023-07-28T02:53:59;15.48;;;10.32;;
34832;SDS011;55941;50.800;4.342;2023-07-28T02:56:25;23.98;;;10.43;;
34832;SDS011;55941;50.800;4.342;2023-07-28T02:58:51;21.48;;;10.88;;
34832;SDS011;55941;50.800;4.342;2023-07-28T03:01:18;20.40;;;10.77;;
34832;SDS011;55941;50.800;4.342;2023-07-28T03:03:43;22.70;;;10.75;;
34832;SDS011;55941;50.800;4.342;2023-07-28T03:06:09;24.33;;;10.00;;
34832;SDS011;55941;50.800;4.342;2023-07-28T03:08:35;16.10;;;9.88;;
34832;SDS011;55941;50.800;4.342;2023-07-28T03:11:01;21.10;;;10.13;;
34832;SDS011;55941;50.800;4.342;2023-07-28T03:13:29;12.85;;;8.70;;
34832;SDS011;55941;50.800;4.342;2023-07-28T03:15:55;16.80;;;9.00;;
34832;SDS011;55941;50.800;4.342;2023-07-28T03:18:20;14.35;;;8.85;;
34832;SDS011;55941;50.800;4.342;2023-07-28T03:20:46;16.27;;;8.77;;
34832;SDS011;55941;50.800;4.342;2023-07-28T03:23:13;16.98;;;8.65;;
34832;SDS011;55941;50.800;4.342;2023-07-28T03:25:39;17.60;;;8.75;;
34832;SDS011;55941;50.800;4.342;2023-07-28T03:28:05;12.70;;;8.13;;
34832;SDS011;55941;50.800;4.342;2023-07-28T03:30:30;15.00;;;9.32;;
34832;SDS011;55941;50.800;4.342;2023-07-28T03:32:56;18.27;;;8.13;;
34832;SDS011;55941;50.800;4.342;2023-07-28T03:35:22;15.15;;;8.20;;
34832;SDS011;55941;50.800;4.342;2023-07-28T03:37:48;16.80;;;8.32;;
34832;SDS011;55941;50.800;4.342;2023-07-28T03:40:13;15.32;;;7.90;;
34832;SDS011;55941;50.800;4.342;2023-07-28T03:42:39;17.30;;;8.65;;
34832;SDS011;55941;50.800;4.342;2023-07-28T03:45:05;21.27;;;8.20;;
34832;SDS011;55941;50.800;4.342;2023-07-28T03:47:31;14.43;;;7.80;;
34832;SDS011;55941;50.800;4.342;2023-07-28T03:49:58;19.55;;;8.45;;
34832;SDS011;55941;50.800;4.342;2023-07-28T03:52:24;22.80;;;8.15;;
34832;SDS011;55941;50.800;4.342;2023-07-28T03:54:50;17.92;;;7.72;;
34832;SDS011;55941;50.800;4.342;2023-07-28T03:57:15;16.90;;;7.13;;
34832;SDS011;55941;50.800;4.342;2023-07-28T03:59:41;17.98;;;7.90;;
34832;SDS011;55941;50.800;4.342;2023-07-28T04:02:07;12.95;;;6.90;;
34832;SDS011;55941;50.800;4.342;2023-07-28T04:04:33;11.88;;;6.53;;
34832;SDS011;55941;50.800;4.342;2023-07-28T04:07:00;10.07;;;6.18;;
34832;SDS011;55941;50.800;4.342;2023-07-28T04:09:26;9.25;;;5.88;;
34832;SDS011;55941;50.800;4.342;2023-07-28T04:11:52;8.52;;;5.72;;
34832;SDS011;55941;50.800;4.342;2023-07-28T04:14:18;13.30;;;5.85;;
34832;SDS011;55941;50.800;4.342;2023-07-28T04:16:44;9.45;;;5.13;;
34832;SDS011;55941;50.800;4.342;2023-07-28T04:19:09;8.73;;;5.25;;
34832;SDS011;55941;50.800;4.342;2023-07-28T04:21:35;7.03;;;4.38;;
34832;SDS011;55941;50.800;4.342;2023-07-28T04:24:04;8.70;;;4.50;;
34832;SDS011;55941;50.800;4.342;2023-07-28T04:26:34;8.85;;;4.95;;
34832;SDS011;55941;50.800;4.342;2023-07-28T04:28:59;13.73;;;4.18;;
34832;SDS011;55941;50.800;4.342;2023-07-28T04:31:25;10.93;;;4.43;;
34832;SDS011;55941;50.800;4.342;2023-07-28T04:33:51;11.82;;;4.30;;
34832;SDS011;55941;50.800;4.342;2023-07-28T04:36:16;15.35;;;4.47;;
34832;SDS011;55941;50.800;4.342;2023-07-28T04:38:42;10.77;;;4.68;;
34832;SDS011;55941;50.800;4.342;2023-07-28T04:41:08;8.98;;;4.60;;
34832;SDS011;55941;50.800;4.342;2023-07-28T04:43:33;16.02;;;4.50;;
34832;SDS011;55941;50.800;4.342;2023-07-28T04:45:59;12.13;;;4.55;;
34832;SDS011;55941;50.800;4.342;2023-07-28T04:48:26;12.90;;;4.50;;
34832;SDS011;55941;50.800;4.342;2023-07-28T04:50:52;13.23;;;4.72;;
34832;SDS011;55941;50.800;4.342;2023-07-28T04:53:18;9.43;;;4.13;;
34832;SDS011;55941;50.800;4.342;2023-07-28T04:55:44;10.65;;;5.10;;
34832;SDS011;55941;50.800;4.342;2023-07-28T04:58:10;10.30;;;4.65;;
34832;SDS011;55941;50.800;4.342;2023-07-28T05:00:36;9.85;;;5.13;;
34832;SDS011;55941;50.800;4.342;2023-07-28T05:03:01;11.02;;;4.40;;
34832;SDS011;55941;50.800;4.342;2023-07-28T05:05:28;8.48;;;4.55;;
34832;SDS011;55941;50.800;4.342;2023-07-28T05:07:54;11.18;;;4.72;;
34832;SDS011;55941;50.800;4.342;2023-07-28T05:10:20;8.52;;;4.93;;
34832;SDS011;55941;50.800;4.342;2023-07-28T05:12:46;7.65;;;4.30;;
34832;SDS011;55941;50.800;4.342;2023-07-28T05:15:13;12.38;;;4.50;;
34832;SDS011;55941;50.800;4.342;2023-07-28T05:17:40;6.35;;;4.53;;
34832;SDS011;55941;50.800;4.342;2023-07-28T05:20:05;11.10;;;4.80;;
34832;SDS011;55941;50.800;4.342;2023-07-28T05:22:32;10.25;;;5.38;;
34832;SDS011;55941;50.800;4.342;2023-07-28T05:24:57;9.88;;;4.88;;
34832;SDS011;55941;50.800;4.342;2023-07-28T05:27:23;10.25;;;4.95;;
34832;SDS011;55941;50.800;4.342;2023-07-28T05:29:49;12.43;;;4.93;;
34832;SDS011;55941;50.800;4.342;2023-07-28T05:32:15;5.55;;;3.83;;
34832;SDS011;55941;50.800;4.342;2023-07-28T05:34:44;8.48;;;3.97;;
34832;SDS011;55941;50.800;4.342;2023-07-28T05:37:10;6.07;;;3.80;;
34832;SDS011;55941;50.800;4.342;2023-07-28T05:39:36;6.65;;;3.90;;
34832;SDS011;55941;50.800;4.342;2023-07-28T05:42:02;13.30;;;3.78;;
34832;SDS011;55941;50.800;4.342;2023-07-28T05:44:28;9.93;;;3.45;;
34832;SDS011;55941;50.800;4.342;2023-07-28T05:46:53;7.30;;;3.45;;
34832;SDS011;55941;50.800;4.342;2023-07-28T05:49:19;5.18;;;3.35;;
34832;SDS011;55941;50.800;4.342;2023-07-28T05:51:45;6.00;;;3.45;;
34832;SDS011;55941;50.800;4.342;2023-07-28T05:54:15;4.63;;;3.35;;
34832;SDS011;55941;50.800;4.342;2023-07-28T05:59:09;4.97;;;3.42;;
34832;SDS011;55941;50.800;4.342;2023-07-28T06:01:35;10.77;;;3.60;;
34832;SDS011;55941;50.800;4.342;2023-07-28T06:04:02;6.15;;;4.25;;
34832;SDS011;55941;50.800;4.342;2023-07-28T06:06:27;6.22;;;4.10;;
34832;SDS011;55941;50.800;4.342;2023-07-28T06:08:53;6.38;;;3.90;;
34832;SDS011;55941;50.800;4.342;2023-07-28T06:11:19;15.43;;;4.63;;
34832;SDS011;55941;50.800;4.342;2023-07-28T06:13:45;11.00;;;4.53;;
34832;SDS011;55941;50.800;4.342;2023-07-28T06:16:12;9.00;;;4.00;;
34832;SDS011;55941;50.800;4.342;2023-07-28T06:18:38;12.23;;;4.10;;
34832;SDS011;55941;50.800;4.342;2023-07-28T06:21:03;7.13;;;4.43;;
34832;SDS011;55941;50.800;4.342;2023-07-28T06:23:29;7.78;;;4.63;;
34832;SDS011;55941;50.800;4.342;2023-07-28T06:25:56;10.02;;;4.95;;
34832;SDS011;55941;50.800;4.342;2023-07-28T06:28:23;13.25;;;5.40;;
34832;SDS011;55941;50.800;4.342;2023-07-28T06:30:55;9.90;;;6.18;;
34832;SDS011;55941;50.800;4.342;2023-07-28T06:33:24;8.93;;;5.15;;
34832;SDS011;55941;50.800;4.342;2023-07-28T06:35:50;12.90;;;5.40;;
34832;SDS011;55941;50.800;4.342;2023-07-28T06:38:18;11.73;;;4.90;;
34832;SDS011;55941;50.800;4.342;2023-07-28T06:40:44;12.68;;;5.15;;
34832;SDS011;55941;50.800;4.342;2023-07-28T06:43:09;11.80;;;3.95;;
34832;SDS011;55941;50.800;4.342;2023-07-28T06:45:35;8.88;;;4.40;;
34832;SDS011;55941;50.800;4.342;2023-07-28T06:48:02;11.70;;;5.78;;
34832;SDS011;55941;50.800;4.342;2023-07-28T06:50:28;12.80;;;5.70;;
34832;SDS011;55941;50.800;4.342;2023-07-28T06:52:54;7.63;;;4.90;;
34832;SDS011;55941;50.800;4.342;2023-07-28T06:55:20;6.85;;;4.60;;
34832;SDS011;55941;50.800;4.342;2023-07-28T06:57:48;7.45;;;4.65;;
34832;SDS011;55941;50.800;4.342;2023-07-28T07:00:14;8.55;;;5.00;;
34832;SDS011;55941;50.800;4.342;2023-07-28T07:02:40;5.88;;;4.20;;
34832;SDS011;55941;50.800;4.342;2023-07-28T07:05:06;7.38;;;4.50;;
34832;SDS011;55941;50.800;4.342;2023-07-28T07:07:33;8.93;;;4.00;;
34832;SDS011;55941;50.800;4.342;2023-07-28T07:09:59;9.18;;;3.85;;
34832;SDS011;55941;50.800;4.342;2023-07-28T07:12:24;5.60;;;3.55;;
34832;SDS011;55941;50.800;4.342;2023-07-28T07:14:50;2.92;;;1.95;;
34832;SDS011;55941;50.800;4.342;2023-07-28T07:17:16;2.75;;;1.58;;
34832;SDS011;55941;50.800;4.342;2023-07-28T07:19:44;1.60;;;1.10;;
34832;SDS011;55941;50.800;4.342;2023-07-28T07:22:10;3.15;;;1.30;;
34832;SDS011;55941;50.800;4.342;2023-07-28T07:24:36;1.13;;;0.73;;
34832;SDS011;55941;50.800;4.342;2023-07-28T07:27:01;3.33;;;1.27;;
34832;SDS011;55941;50.800;4.342;2023-07-28T07:29:27;1.77;;;1.40;;
34832;SDS011;55941;50.800;4.342;2023-07-28T07:31:53;3.78;;;1.40;;
34832;SDS011;55941;50.800;4.342;2023-07-28T07:34:21;2.20;;;1.27;;
34832;SDS011;55941;50.800;4.342;2023-07-28T07:36:47;2.22;;;1.48;;
34832;SDS011;55941;50.800;4.342;2023-07-28T07:39:13;2.10;;;1.40;;
34832;SDS011;55941;50.800;4.342;2023-07-28T07:41:38;6.28;;;2.30;;
34832;SDS011;55941;50.800;4.342;2023-07-28T07:44:04;2.45;;;2.25;;
34832;SDS011;55941;50.800;4.342;2023-07-28T07:46:30;3.60;;;2.30;;
34832;SDS011;55941;50.800;4.342;2023-07-28T07:48:56;6.22;;;2.72;;
34832;SDS011;55941;50.800;4.342;2023-07-28T07:51:21;4.50;;;2.80;;
34832;SDS011;55941;50.800;4.342;2023-07-28T07:53:47;5.82;;;2.90;;
34832;SDS011;55941;50.800;4.342;2023-07-28T07:56:13;6.85;;;3.50;;
34832;SDS011;55941;50.800;4.342;2023-07-28T07:58:38;3.20;;;2.90;;
34832;SDS011;55941;50.800;4.342;2023-07-28T08:01:04;5.78;;;2.97;;
34832;SDS011;55941;50.800;4.342;2023-07-28T08:03:30;3.00;;;2.35;;
34832;SDS011;55941;50.800;4.342;2023-07-28T08:05:57;3.75;;;2.22;;
34832;SDS011;55941;50.800;4.342;2023-07-28T08:08:23;6.70;;;2.17;;
34832;SDS011;55941;50.800;4.342;2023-07-28T08:10:51;15.30;;;3.33;;
34832;SDS011;55941;50.800;4.342;2023-07-28T08:13:17;9.75;;;2.05;;
34832;SDS011;55941;50.800;4.342;2023-07-28T08:15:43;4.95;;;1.80;;
34832;SDS011;55941;50.800;4.342;2023-07-28T08:18:10;6.05;;;1.90;;
34832;SDS011;55941;50.800;4.342;2023-07-28T08:20:36;5.15;;;1.58;;
34832;SDS011;55941;50.800;4.342;2023-07-28T08:23:02;2.97;;;1.77;;
34832;SDS011;55941;50.800;4.342;2023-07-28T08:25:28;2.47;;;1.25;;
34832;SDS011;55941;50.800;4.342;2023-07-28T08:27:53;1.42;;;1.15;;
34832;SDS011;55941;50.800;4.342;2023-07-28T08:30:19;2.58;;;1.40;;
34832;SDS011;55941;50.800;4.342;2023-07-28T08:32:46;6.30;;;1.50;;
34832;SDS011;55941;50.800;4.342;2023-07-28T08:35:12;1.52;;;1.15;;
34832;SDS011;55941;50.800;4.342;2023-07-28T08:37:37;2.30;;;1.40;;
34832;SDS011;55941;50.800;4.342;2023-07-28T08:40:03;2.05;;;1.13;;
34832;SDS011;55941;50.800;4.342;2023-07-28T08:42:30;1.05;;;0.70;;
34832;SDS011;55941;50.800;4.342;2023-07-28T08:45:03;1.98;;;1.00;;
34832;SDS011;55941;50.800;4.342;2023-07-28T08:47:30;1.83;;;0.90;;
34832;SDS011;55941;50.800;4.342;2023-07-28T08:49:57;3.55;;;1.00;;
34832;SDS011;55941;50.800;4.342;2023-07-28T08:52:24;3.40;;;1.20;;
34832;SDS011;55941;50.800;4.342;2023-07-28T08:54:50;2.00;;;0.90;;
34832;SDS011;55941;50.800;4.342;2023-07-28T08:57:16;1.05;;;0.88;;
34832;SDS011;55941;50.800;4.342;2023-07-28T08:59:42;2.08;;;1.02;;
34832;SDS011;55941;50.800;4.342;2023-07-28T09:02:13;2.22;;;0.93;;
34832;SDS011;55941;50.800;4.342;2023-07-28T09:04:42;2.72;;;1.10;;
34832;SDS011;55941;50.800;4.342;2023-07-28T09:07:08;6.05;;;1.33;;
34832;SDS011;55941;50.800;4.342;2023-07-28T09:09:35;2.67;;;1.05;;
34832;SDS011;55941;50.800;4.342;2023-07-28T09:12:02;3.08;;;1.30;;
34832;SDS011;55941;50.800;4.342;2023-07-28T09:14:29;5.10;;;1.77;;
34832;SDS011;55941;50.800;4.342;2023-07-28T09:16:55;3.75;;;1.70;;
34832;SDS011;55941;50.800;4.342;2023-07-28T09:19:21;3.38;;;1.67;;
34832;SDS011;55941;50.800;4.342;2023-07-28T09:21:57;5.35;;;2.03;;
34832;SDS011;55941;50.800;4.342;2023-07-28T09:24:28;5.65;;;1.92;;
34832;SDS011;55941;50.800;4.342;2023-07-28T09:26:57;5.97;;;2.30;;
34832;SDS011;55941;50.800;4.342;2023-07-28T09:29:26;3.30;;;1.85;;
34832;SDS011;55941;50.800;4.342;2023-07-28T09:32:02;5.30;;;2.50;;
34832;SDS011;55941;50.800;4.342;2023-07-28T09:34:29;4.90;;;2.22;;
34832;SDS011;55941;50.800;4.342;2023-07-28T09:36:58;4.38;;;2.17;;
34832;SDS011;55941;50.800;4.342;2023-07-28T09:39:25;4.72;;;2.28;;
34832;SDS011;55941;50.800;4.342;2023-07-28T09:41:51;3.72;;;2.10;;
34832;SDS011;55941;50.800;4.342;2023-07-28T09:44:18;3.08;;;2.10;;
34832;SDS011;55941;50.800;4.342;2023-07-28T09:46:49;5.40;;;2.28;;
34832;SDS011;55941;50.800;4.342;2023-07-28T09:49:21;4.88;;;2.45;;
34832;SDS011;55941;50.800;4.342;2023-07-28T09:51:53;4.60;;;2.13;;
34832;SDS011;55941;50.800;4.342;2023-07-28T09:54:29;3.45;;;1.95;;
34832;SDS011;55941;50.800;4.342;2023-07-28T09:56:56;3.90;;;1.83;;
34832;SDS011;55941;50.800;4.342;2023-07-28T09:59:28;2.38;;;1.83;;
34832;SDS011;55941;50.800;4.342;2023-07-28T10:02:00;2.35;;;1.85;;
34832;SDS011;55941;50.800;4.342;2023-07-28T10:04:29;3.85;;;1.90;;
34832;SDS011;55941;50.800;4.342;2023-07-28T10:06:55;2.67;;;1.75;;
34832;SDS011;55941;50.800;4.342;2023-07-28T10:09:25;3.47;;;1.80;;
34832;SDS011;55941;50.800;4.342;2023-07-28T10:11:52;3.72;;;1.80;;
34832;SDS011;55941;50.800;4.342;2023-07-28T10:14:28;2.35;;;1.58;;
34832;SDS011;55941;50.800;4.342;2023-07-28T10:17:00;2.45;;;1.80;;
34832;SDS011;55941;50.800;4.342;2023-07-28T10:19:29;2.22;;;1.60;;
34832;SDS011;55941;50.800;4.342;2023-07-28T10:27:29;2.95;;;1.90;;
34832;SDS011;55941;50.800;4.342;2023-07-28T10:30:00;2.63;;;1.83;;
34832;SDS011;55941;50.800;4.342;2023-07-28T10:32:40;2.35;;;1.70;;
34832;SDS011;55941;50.800;4.342;2023-07-28T10:37:45;4.40;;;2.30;;
34832;SDS011;55941;50.800;4.342;2023-07-28T10:43:04;3.97;;;3.33;;
34832;SDS011;55941;50.800;4.342;2023-07-28T10:45:30;7.72;;;3.47;;
34832;SDS011;55941;50.800;4.342;2023-07-28T10:47:57;4.45;;;3.75;;
34832;SDS011;55941;50.800;4.342;2023-07-28T10:50:28;5.22;;;3.67;;
34832;SDS011;55941;50.800;4.342;2023-07-28T10:52:56;5.70;;;3.50;;
34832;SDS011;55941;50.800;4.342;2023-07-28T10:55:23;7.05;;;3.58;;
34832;SDS011;55941;50.800;4.342;2023-07-28T10:57:52;6.25;;;3.53;;
34832;SDS011;55941;50.800;4.342;2023-07-28T11:00:19;7.78;;;3.78;;
34832;SDS011;55941;50.800;4.342;2023-07-28T11:02:51;5.65;;;4.07;;
34832;SDS011;55941;50.800;4.342;2023-07-28T11:05:19;4.43;;;3.90;;
34832;SDS011;55941;50.800;4.342;2023-07-28T11:07:47;9.20;;;3.70;;
34832;SDS011;55941;50.800;4.342;2023-07-28T11:10:13;4.72;;;3.58;;
34832;SDS011;55941;50.800;4.342;2023-07-28T11:12:43;6.95;;;3.50;;
34832;SDS011;55941;50.800;4.342;2023-07-28T11:15:11;5.60;;;3.15;;
34832;SDS011;55941;50.800;4.342;2023-07-28T11:17:39;6.03;;;2.50;;
34832;SDS011;55941;50.800;4.342;2023-07-28T11:20:14;3.20;;;2.88;;
34832;SDS011;55941;50.800;4.342;2023-07-28T11:22:41;3.85;;;2.25;;
34832;SDS011;55941;50.800;4.342;2023-07-28T11:25:08;3.35;;;2.47;;
34832;SDS011;55941;50.800;4.342;2023-07-28T11:27:35;3.33;;;3.00;;
34832;SDS011;55941;50.800;4.342;2023-07-28T11:30:04;7.20;;;2.55;;
34832;SDS011;55941;50.800;4.342;2023-07-28T11:32:35;2.72;;;2.35;;
34832;SDS011;55941;50.800;4.342;2023-07-28T11:35:05;5.20;;;2.13;;
34832;SDS011;55941;50.800;4.342;2023-07-28T11:40:00;6.60;;;2.83;;
34832;SDS011;55941;50.800;4.342;2023-07-28T11:42:30;3.25;;;2.17;;
34832;SDS011;55941;50.800;4.342;2023-07-28T11:44:56;3.20;;;2.30;;
34832;SDS011;55941;50.800;4.342;2023-07-28T11:47:23;2.83;;;2.40;;
34832;SDS011;55941;50.800;4.342;2023-07-28T11:49:49;5.57;;;2.33;;
34832;SDS011;55941;50.800;4.342;2023-07-28T11:52:16;5.90;;;1.90;;
34832;SDS011;55941;50.800;4.342;2023-07-28T11:54:43;2.05;;;1.60;;
34832;SDS011;55941;50.800;4.342;2023-07-28T11:57:10;4.03;;;1.70;;
34832;SDS011;55941;50.800;4.342;2023-07-28T11:59:40;3.17;;;1.80;;
34832;SDS011;55941;50.800;4.342;2023-07-28T12:02:07;2.42;;;1.45;;
34832;SDS011;55941;50.800;4.342;2023-07-28T12:04:41;5.40;;;1.75;;
34832;SDS011;55941;50.800;4.342;2023-07-28T12:07:15;9.10;;;2.00;;
34832;SDS011;55941;50.800;4.342;2023-07-28T12:12:17;5.05;;;1.73;;
34832;SDS011;55941;50.800;4.342;2023-07-28T12:14:44;3.65;;;1.35;;
34832;SDS011;55941;50.800;4.342;2023-07-28T12:17:14;2.70;;;1.30;;
34832;SDS011;55941;50.800;4.342;2023-07-28T12:19:41;3.80;;;1.27;;
34832;SDS011;55941;50.800;4.342;2023-07-28T12:22:07;6.57;;;1.30;;
34832;SDS011;55941;50.800;4.342;2023-07-28T12:24:33;3.40;;;1.23;;
34832;SDS011;55941;50.800;4.342;2023-07-28T12:26:59;1.60;;;1.00;;
34832;SDS011;55941;50.800;4.342;2023-07-28T12:29:26;1.30;;;0.80;;
34832;SDS011;55941;50.800;4.342;2023-07-28T12:31:52;1.95;;;0.95;;
34832;SDS011;55941;50.800;4.342;2023-07-28T12:34:19;15.32;;;1.20;;
34832;SDS011;55941;50.800;4.342;2023-07-28T12:36:45;7.57;;;1.42;;
34832;SDS011;55941;50.800;4.342;2023-07-28T12:39:11;2.38;;;1.00;;
34832;SDS011;55941;50.800;4.342;2023-07-28T12:41:37;2.85;;;1.00;;
34832;SDS011;55941;50.800;4.342;2023-07-28T12:44:03;4.30;;;1.13;;
34832;SDS011;55941;50.800;4.342;2023-07-28T12:46:29;4.03;;;1.00;;
34832;SDS011;55941;50.800;4.342;2023-07-28T12:48:55;2.85;;;0.80;;
34832;SDS011;55941;50.800;4.342;2023-07-28T12:51:20;1.92;;;1.00;;
34832;SDS011;55941;50.800;4.342;2023-07-28T12:53:46;1.05;;;0.85;;
34832;SDS011;55941;50.800;4.342;2023-07-28T12:56:13;4.35;;;1.10;;
34832;SDS011;55941;50.800;4.342;2023-07-28T12:58:38;2.72;;;1.00;;
34832;SDS011;55941;50.800;4.342;2023-07-28T13:01:04;2.42;;;1.05;;
34832;SDS011;55941;50.800;4.342;2023-07-28T13:03:30;2.90;;;0.80;;
34832;SDS011;55941;50.800;4.342;2023-07-28T13:05:56;2.15;;;1.02;;
34832;SDS011;55941;50.800;4.342;2023-07-28T13:08:21;2.97;;;1.20;;
34832;SDS011;55941;50.800;4.342;2023-07-28T13:10:47;3.72;;;0.88;;
34832;SDS011;55941;50.800;4.342;2023-07-28T13:13:13;1.25;;;1.00;;
34832;SDS011;55941;50.800;4.342;2023-07-28T13:15:39;5.65;;;1.27;;
34832;SDS011;55941;50.800;4.342;2023-07-28T13:18:04;7.05;;;1.13;;
34832;SDS011;55941;50.800;4.342;2023-07-28T13:20:30;0.90;;;0.88;;
34832;SDS011;55941;50.800;4.342;2023-07-28T13:22:56;3.90;;;1.25;;
34832;SDS011;55941;50.800;4.342;2023-07-28T13:25:21;3.05;;;0.93;;
34832;SDS011;55941;50.800;4.342;2023-07-28T13:27:48;1.75;;;1.00;;
34832;SDS011;55941;50.800;4.342;2023-07-28T13:30:14;1.23;;;1.00;;
34832;SDS011;55941;50.800;4.342;2023-07-28T13:32:40;6.10;;;1.05;;
34832;SDS011;55941;50.800;4.342;2023-07-28T13:35:06;3.50;;;1.10;;
34832;SDS011;55941;50.800;4.342;2023-07-28T13:37:32;2.72;;;1.13;;
34832;SDS011;55941;50.800;4.342;2023-07-28T13:39:58;1.80;;;1.05;;
34832;SDS011;55941;50.800;4.342;2023-07-28T13:42:25;4.40;;;0.90;;
34832;SDS011;55941;50.800;4.342;2023-07-28T13:44:52;1.08;;;0.90;;
34832;SDS011;55941;50.800;4.342;2023-07-28T13:47:18;1.15;;;0.77;;
34832;SDS011;55941;50.800;4.342;2023-07-28T13:49:43;2.45;;;1.42;;
34832;SDS011;55941;50.800;4.342;2023-07-28T13:52:09;1.65;;;1.00;;
34832;SDS011;55941;50.800;4.342;2023-07-28T13:54:35;2.05;;;1.08;;
34832;SDS011;55941;50.800;4.342;2023-07-28T13:57:01;5.28;;;0.80;;
34832;SDS011;55941;50.800;4.342;2023-07-28T13:59:26;1.30;;;0.95;;
34832;SDS011;55941;50.800;4.342;2023-07-28T14:01:52;2.03;;;0.90;;
34832;SDS011;55941;50.800;4.342;2023-07-28T14:04:18;1.85;;;1.02;;
34832;SDS011;55941;50.800;4.342;2023-07-28T14:06:44;1.13;;;0.80;;
34832;SDS011;55941;50.800;4.342;2023-07-28T14:09:09;2.85;;;0.85;;
34832;SDS011;55941;50.800;4.342;2023-07-28T14:11:35;1.60;;;0.80;;
34832;SDS011;55941;50.800;4.342;2023-07-28T14:14:00;2.85;;;1.15;;
34832;SDS011;55941;50.800;4.342;2023-07-28T14:16:27;3.38;;;0.90;;
34832;SDS011;55941;50.800;4.342;2023-07-28T14:18:53;1.45;;;0.93;;
34832;SDS011;55941;50.800;4.342;2023-07-28T14:21:19;1.92;;;1.02;;
34832;SDS011;55941;50.800;4.342;2023-07-28T14:23:44;2.22;;;0.90;;
34832;SDS011;55941;50.800;4.342;2023-07-28T14:26:10;1.65;;;0.90;;
34832;SDS011;55941;50.800;4.342;2023-07-28T14:31:07;5.25;;;0.80;;
34832;SDS011;55941;50.800;4.342;2023-07-28T14:33:33;2.30;;;1.30;;
34832;SDS011;55941;50.800;4.342;2023-07-28T14:36:02;4.70;;;0.80;;
34832;SDS011;55941;50.800;4.342;2023-07-28T14:38:29;2.15;;;0.75;;
34832;SDS011;55941;50.800;4.342;2023-07-28T14:40:55;3.55;;;0.80;;
34832;SDS011;55941;50.800;4.342;2023-07-28T14:43:20;1.50;;;0.85;;
34832;SDS011;55941;50.800;4.342;2023-07-28T14:45:48;1.38;;;0.80;;
34832;SDS011;55941;50.800;4.342;2023-07-28T14:48:19;2.58;;;0.80;;
34832;SDS011;55941;50.800;4.342;2023-07-28T14:50:46;2.10;;;0.95;;
34832;SDS011;55941;50.800;4.342;2023-07-28T14:56:10;3.72;;;0.93;;
34832;SDS011;55941;50.800;4.342;2023-07-28T15:01:12;2.00;;;0.70;;
34832;SDS011;55941;50.800;4.342;2023-07-28T15:03:38;2.22;;;0.80;;
34832;SDS011;55941;50.800;4.342;2023-07-28T15:06:08;1.35;;;1.00;;
34832;SDS011;55941;50.800;4.342;2023-07-28T15:08:37;1.38;;;0.80;;
34832;SDS011;55941;50.800;4.342;2023-07-28T15:13:34;1.00;;;0.90;;
34832;SDS011;55941;50.800;4.342;2023-07-28T15:18:28;2.28;;;1.08;;